createdAt,value
2017-10-31T00:00:40.323Z,0.9
2017-10-31T00:01:40.319Z,1.1
2017-10-31T00:02:40.348Z,1.4
2017-10-31T00:03:40.342Z,1.6
2017-10-31T00:04:40.353Z,1.6
2017-10-31T00:05:40.313Z,1.6
2017-10-31T00:06:40.319Z,1.7
2017-10-31T00:07:40.334Z,1.6
2017-10-31T00:08:40.335Z,1.7
2017-10-31T00:09:40.341Z,2
2017-10-31T00:10:40.317Z,2.3
2017-10-31T00:11:40.315Z,2.5
2017-10-31T00:12:40.335Z,2.7
2017-10-31T00:13:40.320Z,2.9
2017-10-31T00:14:40.317Z,2.9
2017-10-31T00:15:40.336Z,2.9
2017-10-31T00:16:40.355Z,2.9
2017-10-31T00:17:40.315Z,2.8
2017-10-31T00:18:40.331Z,2.6
2017-10-31T00:19:40.314Z,2.5
2017-10-31T00:20:40.311Z,2.4
2017-10-31T00:21:40.385Z,2.8
2017-10-31T00:22:40.336Z,2.8
2017-10-31T00:23:40.307Z,2.5
2017-10-31T00:24:40.316Z,2.3
2017-10-31T00:25:40.308Z,2.1
2017-10-31T00:26:40.360Z,2
2017-10-31T00:27:40.312Z,2
2017-10-31T00:28:40.336Z,1.8
2017-10-31T00:29:40.341Z,1.7
2017-10-31T00:30:40.311Z,1.8
2017-10-31T00:31:40.364Z,1.7
2017-10-31T00:32:40.305Z,1.5
2017-10-31T00:33:40.305Z,1.5
2017-10-31T00:34:40.304Z,1.6
2017-10-31T00:35:40.303Z,1.4
2017-10-31T00:36:40.370Z,1.3
2017-10-31T00:37:40.300Z,1.2
2017-10-31T00:38:40.296Z,1.2
2017-10-31T00:39:40.318Z,1.2
2017-10-31T00:40:40.308Z,1.2
2017-10-31T00:41:40.370Z,1.2
2017-10-31T00:42:40.307Z,1.5
2017-10-31T00:43:40.319Z,1.5
2017-10-31T00:44:40.300Z,1.5
2017-10-31T00:45:40.302Z,1.6
2017-10-31T00:46:40.365Z,1.4
2017-10-31T00:47:40.297Z,1.7
2017-10-31T00:48:40.325Z,1.9
2017-10-31T00:49:40.308Z,2.1
2017-10-31T00:50:40.299Z,2.5
2017-10-31T00:51:40.376Z,2.3
2017-10-31T00:52:40.315Z,2.3
2017-10-31T00:53:40.304Z,2.2
2017-10-31T00:54:40.294Z,2.6
2017-10-31T00:55:40.308Z,2.6
2017-10-31T00:56:40.359Z,2.4
2017-10-31T00:57:40.308Z,2.4
2017-10-31T00:58:40.302Z,2.6
2017-10-31T00:59:40.303Z,2.7
2017-10-31T01:00:40.291Z,2.5
2017-10-31T01:01:40.380Z,2.7
2017-10-31T01:02:40.289Z,3.1
2017-10-31T01:03:40.308Z,3.3
2017-10-31T01:04:40.285Z,3.9
2017-10-31T01:05:40.308Z,3.9
2017-10-31T01:06:40.333Z,4
2017-10-31T01:07:40.300Z,4.3
2017-10-31T01:08:40.292Z,4.1
2017-10-31T01:09:40.307Z,4.5
2017-10-31T01:10:40.297Z,4.8
2017-10-31T01:11:40.309Z,5.1
2017-10-31T01:12:40.298Z,5.3
2017-10-31T01:13:40.310Z,5.5
2017-10-31T01:14:40.304Z,5.4
2017-10-31T01:15:40.301Z,5.6
2017-10-31T01:16:40.285Z,5.5
2017-10-31T01:17:40.297Z,5.2
2017-10-31T01:18:40.280Z,5
2017-10-31T01:19:40.294Z,4.8
2017-10-31T01:20:40.298Z,4.7
2017-10-31T01:21:40.282Z,4.9
2017-10-31T01:22:40.294Z,4.7
2017-10-31T01:23:40.294Z,4.7
2017-10-31T01:24:40.280Z,4.5
2017-10-31T01:25:40.284Z,4.7
2017-10-31T01:26:40.278Z,4.5
2017-10-31T01:27:40.344Z,4.9
2017-10-31T01:28:40.288Z,5.2
2017-10-31T01:29:40.297Z,5.4
2017-10-31T01:30:40.283Z,5.4
2017-10-31T01:31:40.295Z,5.3
2017-10-31T01:32:40.336Z,5
2017-10-31T01:33:40.281Z,5.2
2017-10-31T01:34:40.291Z,5.1
2017-10-31T01:35:40.294Z,5
2017-10-31T01:36:40.294Z,5.1
2017-10-31T01:37:40.336Z,5.1
2017-10-31T01:38:40.271Z,5.3
2017-10-31T01:39:40.271Z,5.5
2017-10-31T01:40:40.284Z,5.6
2017-10-31T01:41:40.290Z,5.4
2017-10-31T01:42:40.346Z,5.8
2017-10-31T01:43:40.284Z,5.9
2017-10-31T01:44:40.281Z,5.6
2017-10-31T01:45:40.289Z,5.2
2017-10-31T01:46:40.288Z,5
2017-10-31T01:47:40.322Z,4.8
2017-10-31T01:48:40.284Z,4.6
2017-10-31T01:49:40.270Z,4.5
2017-10-31T01:50:40.278Z,4.5
2017-10-31T01:51:40.266Z,4.3
2017-10-31T01:52:40.338Z,4
2017-10-31T01:53:40.260Z,4
2017-10-31T01:54:40.285Z,3.8
2017-10-31T01:55:40.281Z,3.5
2017-10-31T01:56:40.278Z,3.2
2017-10-31T01:57:40.322Z,2.9
2017-10-31T01:58:40.282Z,2.6
2017-10-31T01:59:40.273Z,2.5
2017-10-31T02:00:40.286Z,2.7
2017-10-31T02:01:40.262Z,2.6
2017-10-31T02:02:40.349Z,2.5
2017-10-31T02:03:40.281Z,2.5
2017-10-31T02:04:40.278Z,2.3
2017-10-31T02:05:40.276Z,2.1
2017-10-31T02:06:40.353Z,2.1
2017-10-31T02:07:40.333Z,1.9
2017-10-31T02:08:40.287Z,1.7
2017-10-31T02:09:40.279Z,1.5
2017-10-31T02:10:40.275Z,1.4
2017-10-31T02:11:40.269Z,1.3
2017-10-31T02:12:40.304Z,1.7
2017-10-31T02:13:40.276Z,2
2017-10-31T02:14:40.272Z,1.9
2017-10-31T02:15:40.277Z,1.8
2017-10-31T02:16:40.273Z,1.9
2017-10-31T02:17:40.268Z,2.3
2017-10-31T02:18:40.270Z,2.5
2017-10-31T02:19:40.269Z,2.4
2017-10-31T02:20:40.270Z,2.5
2017-10-31T02:21:40.268Z,2.3
2017-10-31T02:22:40.271Z,2.3
2017-10-31T02:23:40.263Z,2.6
2017-10-31T02:24:40.263Z,2.9
2017-10-31T02:25:40.262Z,3
2017-10-31T02:26:40.269Z,3
2017-10-31T02:27:40.309Z,3.5
2017-10-31T02:28:40.274Z,4
2017-10-31T02:29:40.261Z,4
2017-10-31T02:30:40.263Z,4.5
2017-10-31T02:31:40.266Z,5
2017-10-31T02:32:40.248Z,5.4
2017-10-31T02:33:40.246Z,5.7
2017-10-31T02:34:40.244Z,6.1
2017-10-31T02:35:40.247Z,6.7
2017-10-31T02:36:40.259Z,6.9
2017-10-31T02:37:40.267Z,7.1
2017-10-31T02:38:40.258Z,7.2
2017-10-31T02:39:40.257Z,7.7
2017-10-31T02:40:40.247Z,7.8
2017-10-31T02:41:40.263Z,8.1
2017-10-31T02:42:40.263Z,8.3
2017-10-31T02:43:40.254Z,8.6
2017-10-31T02:44:40.271Z,9.2
2017-10-31T02:45:40.263Z,9.1
2017-10-31T02:46:40.241Z,9.2
2017-10-31T02:47:40.270Z,9.3
2017-10-31T02:48:40.260Z,9
2017-10-31T02:49:40.252Z,8.7
2017-10-31T02:50:40.272Z,8.6
2017-10-31T02:51:40.252Z,8.6
2017-10-31T02:52:40.248Z,8.7
2017-10-31T02:53:40.262Z,8.5
2017-10-31T02:54:40.253Z,8.4
2017-10-31T02:55:40.260Z,8
2017-10-31T02:56:40.243Z,7.6
2017-10-31T02:57:40.252Z,8.1
2017-10-31T02:58:40.251Z,8
2017-10-31T02:59:40.244Z,8.2
2017-10-31T03:00:40.256Z,8.1
2017-10-31T03:01:40.254Z,8.2
2017-10-31T03:02:40.228Z,7.7
2017-10-31T03:03:40.246Z,7.5
2017-10-31T03:04:40.233Z,7.8
2017-10-31T03:05:40.254Z,7.5
2017-10-31T03:06:40.251Z,7.3
2017-10-31T03:07:40.246Z,6.7
2017-10-31T03:08:40.248Z,6.1
2017-10-31T03:09:40.263Z,5.9
2017-10-31T03:10:40.228Z,5.7
2017-10-31T03:11:40.242Z,5.6
2017-10-31T03:12:40.244Z,5.3
2017-10-31T03:13:40.276Z,4.9
2017-10-31T03:14:40.237Z,4.7
2017-10-31T03:15:40.223Z,4.3
2017-10-31T03:16:40.241Z,3.9
2017-10-31T03:17:40.222Z,3.6
2017-10-31T03:18:40.277Z,3.2
2017-10-31T03:19:40.243Z,3
2017-10-31T03:20:40.226Z,2.8
2017-10-31T03:21:40.244Z,2.5
2017-10-31T03:22:40.234Z,2.5
2017-10-31T03:23:40.444Z,2.2
2017-10-31T03:24:40.236Z,2.1
2017-10-31T03:25:40.221Z,1.9
2017-10-31T03:26:40.232Z,1.8
2017-10-31T03:27:40.225Z,1.7
2017-10-31T03:28:40.273Z,1.8
2017-10-31T03:29:40.219Z,1.9
2017-10-31T03:30:40.220Z,2
2017-10-31T03:31:40.229Z,2.1
2017-10-31T03:32:40.220Z,2.1
2017-10-31T03:33:40.236Z,2.2
2017-10-31T03:34:40.229Z,2.4
2017-10-31T03:35:40.235Z,2.7
2017-10-31T03:36:40.237Z,2.7
2017-10-31T03:37:40.234Z,2.5
2017-10-31T03:38:40.237Z,2.2
2017-10-31T03:39:40.231Z,2.2
2017-10-31T03:40:40.229Z,2.1
2017-10-31T03:41:40.226Z,2.1
2017-10-31T03:42:40.228Z,2.3
2017-10-31T03:43:40.208Z,2.5
2017-10-31T03:44:40.229Z,2.7
2017-10-31T03:45:40.221Z,2.4
2017-10-31T03:46:40.229Z,2.5
2017-10-31T03:47:40.213Z,2.3
2017-10-31T03:48:40.229Z,2.3
2017-10-31T03:49:40.227Z,2.1
2017-10-31T03:50:40.222Z,2.1
2017-10-31T03:51:40.219Z,2.3
2017-10-31T03:52:40.217Z,2.6
2017-10-31T03:53:40.225Z,2.5
2017-10-31T03:54:40.227Z,2.5
2017-10-31T03:55:40.223Z,3
2017-10-31T03:56:40.229Z,3.5
2017-10-31T03:57:40.219Z,4
2017-10-31T03:58:40.206Z,4.2
2017-10-31T03:59:40.223Z,4.8
2017-10-31T04:00:40.219Z,4.9
2017-10-31T04:01:40.207Z,5.3
2017-10-31T04:02:40.224Z,5.5
2017-10-31T04:03:40.216Z,5.5
2017-10-31T04:04:40.202Z,5.1
2017-10-31T04:05:40.241Z,5
2017-10-31T04:06:40.216Z,5.2
2017-10-31T04:07:40.201Z,5.3
2017-10-31T04:08:40.212Z,5.8
2017-10-31T04:09:40.216Z,5.9
2017-10-31T04:10:40.211Z,6.2
2017-10-31T04:11:40.226Z,6.2
2017-10-31T04:12:40.198Z,6
2017-10-31T04:13:40.209Z,6.3
2017-10-31T04:14:40.217Z,6.4
2017-10-31T04:15:40.218Z,6.4
2017-10-31T04:16:40.191Z,6.3
2017-10-31T04:17:40.206Z,6.5
2017-10-31T04:18:40.211Z,6.6
2017-10-31T04:19:40.206Z,6.7
2017-10-31T04:20:40.199Z,6.6
2017-10-31T04:21:40.207Z,6.6
2017-10-31T04:22:40.205Z,7
2017-10-31T04:23:40.188Z,7.2
2017-10-31T04:24:40.202Z,6.9
2017-10-31T04:25:40.211Z,6.7
2017-10-31T04:26:40.207Z,6.8
2017-10-31T04:27:42.705Z,6.7
2017-10-31T04:28:40.195Z,6.9
2017-10-31T04:29:40.202Z,7.1
2017-10-31T04:30:40.211Z,7.5
2017-10-31T04:31:40.200Z,7.5
2017-10-31T04:32:40.211Z,7.3
2017-10-31T04:33:40.253Z,7.3
2017-10-31T04:34:40.188Z,7.3
2017-10-31T04:35:40.201Z,7.6
2017-10-31T04:36:40.198Z,8
2017-10-31T04:37:40.198Z,8.3
2017-10-31T04:38:40.251Z,8
2017-10-31T04:39:40.247Z,7.8
2017-10-31T04:40:40.189Z,7.6
2017-10-31T04:41:40.200Z,7.8
2017-10-31T04:42:40.203Z,7.6
2017-10-31T04:43:40.202Z,7.5
2017-10-31T04:44:40.229Z,7.3
2017-10-31T04:45:40.174Z,6.8
2017-10-31T04:46:40.193Z,6.6
2017-10-31T04:47:40.198Z,6.3
2017-10-31T04:48:40.198Z,6.4
2017-10-31T04:49:40.247Z,6.3
2017-10-31T04:50:40.176Z,5.9
2017-10-31T04:51:40.178Z,5.7
2017-10-31T04:52:40.194Z,5.5
2017-10-31T04:53:40.188Z,5.4
2017-10-31T04:54:40.223Z,5.4
2017-10-31T04:55:40.186Z,5.2
2017-10-31T04:56:40.190Z,5.2
2017-10-31T04:57:40.187Z,5
2017-10-31T04:58:40.201Z,5.2
2017-10-31T04:59:40.233Z,5.3
2017-10-31T05:00:40.193Z,5.3
2017-10-31T05:01:40.191Z,5.3
2017-10-31T05:02:40.189Z,5.3
2017-10-31T05:03:40.172Z,5.2
2017-10-31T05:04:40.219Z,5.2
2017-10-31T05:05:40.192Z,5
2017-10-31T05:06:40.174Z,4.8
2017-10-31T05:07:40.184Z,4.6
2017-10-31T05:08:40.168Z,4.3
2017-10-31T05:09:40.223Z,3.9
2017-10-31T05:10:40.172Z,3.7
2017-10-31T05:11:40.180Z,3.4
2017-10-31T05:12:40.168Z,3.3
2017-10-31T05:13:40.197Z,3.3
2017-10-31T05:14:40.343Z,3.2
2017-10-31T05:15:40.162Z,3
2017-10-31T05:16:40.164Z,2.8
2017-10-31T05:17:40.181Z,2.5
2017-10-31T05:18:40.172Z,2.3
2017-10-31T05:19:40.241Z,2.1
2017-10-31T05:20:40.183Z,1.9
2017-10-31T05:21:40.175Z,1.7
2017-10-31T05:22:40.186Z,1.5
2017-10-31T05:23:40.173Z,1.4
2017-10-31T05:24:40.241Z,1.3
2017-10-31T05:25:40.215Z,1.2
2017-10-31T05:26:40.227Z,1.2
2017-10-31T05:27:40.246Z,1.1
2017-10-31T05:28:40.274Z,1
2017-10-31T05:29:40.304Z,0.9
2017-10-31T05:30:40.409Z,0.9
2017-10-31T05:31:40.369Z,1
2017-10-31T05:32:40.345Z,1.1
2017-10-31T05:33:40.419Z,1.1
2017-10-31T05:34:40.382Z,1
2017-10-31T05:35:40.466Z,1.1
2017-10-31T05:36:40.442Z,1.2
2017-10-31T05:37:40.411Z,1.7
2017-10-31T05:38:40.485Z,1.6
2017-10-31T05:39:40.410Z,1.4
2017-10-31T05:40:40.461Z,1.7
2017-10-31T05:41:40.494Z,1.5
2017-10-31T05:42:40.469Z,1.6
2017-10-31T05:43:40.529Z,1.6
2017-10-31T05:44:40.515Z,1.9
2017-10-31T05:45:40.592Z,2
2017-10-31T05:46:40.563Z,2.2
2017-10-31T05:47:40.524Z,2
2017-10-31T05:48:40.597Z,2
2017-10-31T05:49:40.581Z,2
2017-10-31T05:50:40.657Z,1.8
2017-10-31T05:51:40.634Z,1.6
2017-10-31T05:52:40.573Z,1.5
2017-10-31T05:53:40.671Z,1.4
2017-10-31T05:54:40.625Z,1.3
2017-10-31T05:55:40.611Z,1.2
2017-10-31T05:56:40.674Z,1.1
2017-10-31T05:57:40.659Z,1.3
2017-10-31T05:58:40.629Z,1.2
2017-10-31T05:59:40.620Z,1.2
2017-10-31T06:00:40.574Z,1.2
2017-10-31T06:01:40.502Z,1.3
2017-10-31T06:02:40.481Z,1.5
2017-10-31T06:03:40.595Z,1.7
2017-10-31T06:04:40.563Z,2
2017-10-31T06:05:40.620Z,1.8
2017-10-31T06:06:40.594Z,1.7
2017-10-31T06:07:40.581Z,1.7
2017-10-31T06:08:40.653Z,1.6
2017-10-31T06:09:40.611Z,1.5
2017-10-31T06:10:40.701Z,1.5
2017-10-31T06:11:40.684Z,1.4
2017-10-31T06:12:40.154Z,1.2
2017-10-31T06:13:40.141Z,1.1
2017-10-31T06:14:40.151Z,1
2017-10-31T06:15:40.151Z,1
2017-10-31T06:16:40.209Z,1.1
2017-10-31T06:17:40.161Z,1.4
2017-10-31T06:18:40.155Z,1.7
2017-10-31T06:19:40.139Z,2.1
2017-10-31T06:20:40.142Z,2.2
2017-10-31T06:21:40.156Z,2.6
2017-10-31T06:22:40.154Z,2.6
2017-10-31T06:23:40.135Z,2.6
2017-10-31T06:24:40.135Z,2.6
2017-10-31T06:25:40.202Z,2.8
2017-10-31T06:26:40.135Z,2.9
2017-10-31T06:27:40.197Z,3
2017-10-31T06:28:40.142Z,3
2017-10-31T06:29:40.131Z,2.9
2017-10-31T06:30:40.200Z,2.9
2017-10-31T06:31:40.200Z,3.3
2017-10-31T06:32:40.111Z,3.1
2017-10-31T06:33:40.146Z,2.9
2017-10-31T06:34:40.128Z,2.9
2017-10-31T06:35:40.193Z,2.7
2017-10-31T06:36:40.140Z,2.5
2017-10-31T06:37:40.185Z,2.6
2017-10-31T06:38:40.158Z,2.4
2017-10-31T06:39:40.149Z,2.3
2017-10-31T06:40:40.203Z,2.4
2017-10-31T06:41:40.870Z,2.4
2017-10-31T06:42:40.125Z,2.3
2017-10-31T06:43:41.222Z,2.4
2017-10-31T06:44:40.146Z,2.5
2017-10-31T06:45:40.182Z,2.3
2017-10-31T06:46:40.145Z,2.2
2017-10-31T06:47:40.113Z,2.1
2017-10-31T06:48:40.140Z,1.9
2017-10-31T06:49:40.127Z,1.9
2017-10-31T06:50:40.189Z,1.7
2017-10-31T06:51:40.130Z,1.6
2017-10-31T06:52:40.114Z,1.4
2017-10-31T06:53:40.135Z,1.3
2017-10-31T06:54:40.131Z,1.3
2017-10-31T06:55:40.117Z,1.5
2017-10-31T06:56:40.123Z,1.4
2017-10-31T06:57:40.143Z,1.5
2017-10-31T06:58:40.138Z,1.5
2017-10-31T06:59:40.116Z,1.6
2017-10-31T07:00:40.140Z,1.9
2017-10-31T07:01:40.113Z,1.7
2017-10-31T07:02:40.115Z,1.6
2017-10-31T07:03:40.126Z,1.7
2017-10-31T07:04:40.116Z,1.7
2017-10-31T07:05:40.160Z,1.8
2017-10-31T07:06:40.132Z,1.6
2017-10-31T07:07:40.127Z,1.5
2017-10-31T07:08:40.135Z,1.5
2017-10-31T07:09:40.123Z,1.6
2017-10-31T07:10:40.122Z,1.7
2017-10-31T07:11:40.126Z,1.8
2017-10-31T07:12:40.142Z,1.8
2017-10-31T07:13:40.112Z,2.2
2017-10-31T07:14:40.131Z,2.3
2017-10-31T07:15:40.110Z,2.2
2017-10-31T07:16:40.127Z,2.1
2017-10-31T07:17:40.094Z,2
2017-10-31T07:18:40.128Z,1.8
2017-10-31T07:19:40.131Z,1.7
2017-10-31T07:20:40.119Z,1.5
2017-10-31T07:21:40.126Z,2
2017-10-31T07:22:40.128Z,2.3
2017-10-31T07:23:40.121Z,2.1
2017-10-31T07:24:40.122Z,2.3
2017-10-31T07:25:40.107Z,2.1
2017-10-31T07:26:40.150Z,2
2017-10-31T07:27:40.135Z,1.9
2017-10-31T07:28:40.124Z,1.8
2017-10-31T07:29:40.103Z,1.8
2017-10-31T07:30:40.132Z,1.7
2017-10-31T07:31:40.166Z,1.5
2017-10-31T07:32:40.091Z,1.4
2017-10-31T07:33:40.119Z,1.6
2017-10-31T07:34:40.125Z,1.5
2017-10-31T07:35:40.110Z,1.4
2017-10-31T07:36:40.144Z,1.5
2017-10-31T07:37:40.105Z,1.6
2017-10-31T07:38:40.121Z,1.5
2017-10-31T07:39:40.109Z,1.4
2017-10-31T07:40:40.120Z,1.4
2017-10-31T07:41:41.166Z,1.3
2017-10-31T07:42:43.105Z,1.2
2017-10-31T07:43:43.028Z,1.2
2017-10-31T07:44:40.505Z,1.3
2017-10-31T07:45:40.083Z,1.2
2017-10-31T07:46:40.151Z,1.2
2017-10-31T07:47:40.106Z,1.1
2017-10-31T07:48:40.093Z,1.1
2017-10-31T07:49:40.157Z,1
2017-10-31T07:50:40.100Z,0.9
2017-10-31T07:51:41.007Z,0.9
2017-10-31T07:52:40.091Z,0.9
2017-10-31T07:53:40.113Z,0.8
2017-10-31T07:54:40.364Z,0.8
2017-10-31T07:55:40.110Z,0.9
2017-10-31T07:56:40.124Z,0.9
2017-10-31T07:57:40.141Z,1
2017-10-31T07:58:40.077Z,1.1
2017-10-31T07:59:41.126Z,1.1
2017-10-31T08:00:40.089Z,1.2
2017-10-31T08:01:40.111Z,1.1
2017-10-31T08:02:40.103Z,1.3
2017-10-31T08:03:40.115Z,1.3
2017-10-31T08:04:40.107Z,1.3
2017-10-31T08:05:40.111Z,1.5
2017-10-31T08:06:40.111Z,1.8
2017-10-31T08:07:40.081Z,1.9
2017-10-31T08:08:40.090Z,1.9
2017-10-31T08:09:40.107Z,2
2017-10-31T08:10:40.112Z,1.8
2017-10-31T08:11:40.105Z,1.8
2017-10-31T08:12:40.108Z,1.9
2017-10-31T08:13:40.107Z,2
2017-10-31T08:14:40.104Z,2.3
2017-10-31T08:15:40.089Z,2.5
2017-10-31T08:16:40.094Z,2.5
2017-10-31T08:17:40.111Z,2.5
2017-10-31T08:18:40.101Z,3.1
2017-10-31T08:19:40.102Z,3
2017-10-31T08:20:40.089Z,3.1
2017-10-31T08:21:40.093Z,3.2
2017-10-31T08:22:40.090Z,3.3
2017-10-31T08:23:40.100Z,3.1
2017-10-31T08:24:40.098Z,4
2017-10-31T08:25:40.100Z,3.9
2017-10-31T08:26:40.113Z,4.1
2017-10-31T08:27:40.111Z,4.1
2017-10-31T08:28:40.086Z,4.5
2017-10-31T08:29:40.108Z,4.4
2017-10-31T08:30:40.069Z,4
2017-10-31T08:31:41.237Z,3.8
2017-10-31T08:32:40.078Z,3.7
2017-10-31T08:33:40.081Z,3.4
2017-10-31T08:34:40.062Z,3.1
2017-10-31T08:35:40.102Z,3.2
2017-10-31T08:36:40.081Z,3.5
2017-10-31T08:37:40.270Z,3.3
2017-10-31T08:38:40.078Z,3.1
2017-10-31T08:39:40.095Z,3
2017-10-31T08:40:41.163Z,3.2
2017-10-31T08:41:40.067Z,3
2017-10-31T08:42:40.080Z,2.8
2017-10-31T08:43:40.083Z,2.7
2017-10-31T08:44:40.636Z,3
2017-10-31T08:45:40.206Z,3.5
2017-10-31T08:46:40.078Z,3.7
2017-10-31T08:47:40.100Z,4.1
2017-10-31T08:48:41.800Z,4.4
2017-10-31T08:49:40.651Z,4.1
2017-10-31T08:50:40.061Z,3.9
2017-10-31T08:51:41.840Z,4.1
2017-10-31T08:52:40.120Z,4.2
2017-10-31T08:53:40.188Z,3.8
2017-10-31T08:54:40.106Z,4.5
2017-10-31T08:55:40.107Z,4.5
2017-10-31T08:56:40.097Z,5
2017-10-31T08:57:40.140Z,5
2017-10-31T08:58:40.080Z,5.4
2017-10-31T08:59:40.079Z,5.9
2017-10-31T09:00:40.073Z,5.6
2017-10-31T09:01:40.093Z,5.7
2017-10-31T09:02:40.126Z,5.7
2017-10-31T09:03:40.089Z,5.2
2017-10-31T09:04:40.091Z,4.8
2017-10-31T09:05:40.073Z,4.4
2017-10-31T09:06:40.097Z,4
2017-10-31T09:07:40.127Z,4
2017-10-31T09:08:40.093Z,4.1
2017-10-31T09:09:40.087Z,3.7
2017-10-31T09:10:40.076Z,3.4
2017-10-31T09:11:40.088Z,3.2
2017-10-31T09:12:40.088Z,3.2
2017-10-31T09:13:40.080Z,4
2017-10-31T09:14:40.095Z,4.3
2017-10-31T09:15:40.090Z,5
2017-10-31T09:16:40.090Z,5.1
2017-10-31T09:17:40.092Z,5.4
2017-10-31T09:18:40.079Z,5.2
2017-10-31T09:19:40.099Z,5.1
2017-10-31T09:20:40.073Z,5.2
2017-10-31T09:21:40.080Z,4.9
2017-10-31T09:22:40.084Z,5.1
2017-10-31T09:23:40.072Z,4.9
2017-10-31T09:24:40.126Z,4.8
2017-10-31T09:25:40.055Z,5.1
2017-10-31T09:26:40.068Z,5
2017-10-31T09:27:40.092Z,4.8
2017-10-31T09:28:40.086Z,4.6
2017-10-31T09:29:40.067Z,4.4
2017-10-31T09:30:40.089Z,4.4
2017-10-31T09:31:40.097Z,4.5
2017-10-31T09:32:40.089Z,5
2017-10-31T09:33:40.084Z,5.5
2017-10-31T09:34:40.087Z,6
2017-10-31T09:35:40.082Z,6.1
2017-10-31T09:36:40.074Z,6.2
2017-10-31T09:37:40.078Z,6.1
2017-10-31T09:38:40.080Z,6.2
2017-10-31T09:39:40.074Z,5.7
2017-10-31T09:40:40.064Z,5.4
2017-10-31T09:41:40.074Z,5.2
2017-10-31T09:42:40.071Z,4.9
2017-10-31T09:43:40.145Z,4.4
2017-10-31T09:44:40.086Z,4
2017-10-31T09:45:40.095Z,3.9
2017-10-31T09:46:40.078Z,3.5
2017-10-31T09:47:40.077Z,3.3
2017-10-31T09:48:43.108Z,3.8
2017-10-31T09:49:40.059Z,3.8
2017-10-31T09:50:43.979Z,3.9
2017-10-31T09:51:40.420Z,3.9
2017-10-31T09:52:40.044Z,3.6
2017-10-31T09:53:40.127Z,3.3
2017-10-31T09:54:40.048Z,3.5
2017-10-31T09:55:40.047Z,3.2
2017-10-31T09:56:40.056Z,3
2017-10-31T09:57:40.043Z,2.9
2017-10-31T09:58:40.139Z,3.3
2017-10-31T09:59:40.067Z,3.7
2017-10-31T10:00:40.069Z,4.1
2017-10-31T10:01:40.052Z,4.5
2017-10-31T10:02:40.071Z,5.2
2017-10-31T10:03:40.137Z,4.9
2017-10-31T10:04:40.050Z,5.2
2017-10-31T10:05:40.068Z,5.7
2017-10-31T10:06:40.117Z,6.4
2017-10-31T10:07:40.061Z,6.5
2017-10-31T10:08:40.123Z,6.6
2017-10-31T10:09:40.074Z,7.1
2017-10-31T10:10:40.054Z,7
2017-10-31T10:11:40.067Z,7.6
2017-10-31T10:12:40.055Z,7.7
2017-10-31T10:13:40.109Z,7.8
2017-10-31T10:14:40.068Z,7.9
2017-10-31T10:15:40.068Z,7.9
2017-10-31T10:16:40.077Z,7.5
2017-10-31T10:17:40.056Z,7
2017-10-31T10:18:40.066Z,7.1
2017-10-31T10:19:40.074Z,6.9
2017-10-31T10:20:40.062Z,7
2017-10-31T10:21:40.058Z,6.9
2017-10-31T10:22:40.070Z,6.3
2017-10-31T10:23:40.052Z,6.6
2017-10-31T10:24:40.064Z,6.7
2017-10-31T10:25:40.048Z,6.7
2017-10-31T10:26:40.062Z,6.6
2017-10-31T10:27:40.073Z,6.2
2017-10-31T10:28:40.065Z,5.8
2017-10-31T10:29:40.055Z,5.7
2017-10-31T10:30:40.067Z,5.2
2017-10-31T10:31:40.060Z,4.9
2017-10-31T10:32:40.046Z,4.6
2017-10-31T10:33:40.066Z,5.1
2017-10-31T10:34:40.051Z,5.5
2017-10-31T10:35:40.044Z,6
2017-10-31T10:36:40.064Z,6.3
2017-10-31T10:37:40.063Z,6.6
2017-10-31T10:38:40.054Z,6.4
2017-10-31T10:39:40.060Z,6.2
2017-10-31T10:40:40.060Z,5.7
2017-10-31T10:41:40.046Z,5.3
2017-10-31T10:42:40.045Z,5.2
2017-10-31T10:43:40.058Z,5.3
2017-10-31T10:44:40.059Z,4.9
2017-10-31T10:45:40.065Z,4.5
2017-10-31T10:46:40.039Z,4.9
2017-10-31T10:47:40.050Z,5.1
2017-10-31T10:48:40.054Z,5.6
2017-10-31T10:49:40.059Z,6.4
2017-10-31T10:50:40.065Z,6.5
2017-10-31T10:51:40.077Z,6.2
2017-10-31T10:52:40.054Z,6.3
2017-10-31T10:53:40.056Z,5.7
2017-10-31T10:54:40.054Z,5.7
2017-10-31T10:55:40.043Z,5.6
2017-10-31T10:56:40.042Z,5.3
2017-10-31T10:57:40.054Z,5.3
2017-10-31T10:58:40.066Z,5.4
2017-10-31T10:59:40.055Z,5.1
2017-10-31T11:00:40.052Z,4.9
2017-10-31T11:01:40.051Z,5.2
2017-10-31T11:02:40.039Z,4.9
2017-10-31T11:03:40.054Z,4.6
2017-10-31T11:04:40.026Z,4.3
2017-10-31T11:05:40.036Z,4
2017-10-31T11:06:40.069Z,3.8
2017-10-31T11:07:40.060Z,3.6
2017-10-31T11:08:40.034Z,3.9
2017-10-31T11:09:40.130Z,3.9
2017-10-31T11:10:40.062Z,3.6
2017-10-31T11:11:40.025Z,3.5
2017-10-31T11:12:40.058Z,4.1
2017-10-31T11:13:40.053Z,4.5
2017-10-31T11:14:40.091Z,4.3
2017-10-31T11:15:40.051Z,4
2017-10-31T11:16:40.033Z,4.3
2017-10-31T11:17:40.082Z,4.2
2017-10-31T11:18:40.071Z,4.7
2017-10-31T11:19:40.077Z,4.5
2017-10-31T11:20:40.035Z,4.3
2017-10-31T11:21:40.050Z,4
2017-10-31T11:22:40.046Z,4.2
2017-10-31T11:23:40.046Z,4.1
2017-10-31T11:24:40.097Z,4
2017-10-31T11:25:40.040Z,4.1
2017-10-31T11:26:40.042Z,4.4
2017-10-31T11:27:40.039Z,5.2
2017-10-31T11:28:40.027Z,5.9
2017-10-31T11:29:40.093Z,6.1
2017-10-31T11:30:40.051Z,5.9
2017-10-31T11:31:40.042Z,5.4
2017-10-31T11:32:40.045Z,5.6
2017-10-31T11:33:40.065Z,5.5
2017-10-31T11:34:40.114Z,5.9
2017-10-31T11:35:40.037Z,5.9
2017-10-31T11:36:40.050Z,5.9
2017-10-31T11:37:40.044Z,5.7
2017-10-31T11:38:40.037Z,5.9
2017-10-31T11:39:40.104Z,5.8
2017-10-31T11:40:40.029Z,5.9
2017-10-31T11:41:40.048Z,5.7
2017-10-31T11:42:40.027Z,5.6
2017-10-31T11:43:40.048Z,5.1
2017-10-31T11:44:40.079Z,4.6
2017-10-31T11:45:40.049Z,4.4
2017-10-31T11:46:40.051Z,4.2
2017-10-31T11:47:40.047Z,3.8
2017-10-31T11:48:40.079Z,3.6
2017-10-31T11:49:40.038Z,3.4
2017-10-31T11:50:40.023Z,3.1
2017-10-31T11:51:40.060Z,2.8
2017-10-31T11:52:40.054Z,2.6
2017-10-31T11:53:40.035Z,3.1
2017-10-31T11:54:40.052Z,3
2017-10-31T11:55:40.027Z,2.8
2017-10-31T11:56:40.042Z,3.2
2017-10-31T11:57:40.036Z,3
2017-10-31T11:58:40.040Z,3.1
2017-10-31T11:59:40.035Z,3
2017-10-31T12:00:40.023Z,2.8
2017-10-31T12:01:40.032Z,2.8
2017-10-31T12:02:40.032Z,2.7
2017-10-31T12:03:40.037Z,2.7
2017-10-31T12:08:40.039Z,2.1
2017-10-31T12:09:40.030Z,2.2
2017-10-31T12:10:40.047Z,2
2017-10-31T12:11:40.040Z,1.9
2017-10-31T12:12:40.038Z,2
2017-10-31T12:13:40.085Z,2.1
2017-10-31T12:14:40.019Z,2.1
2017-10-31T12:15:40.015Z,2.3
2017-10-31T12:16:40.083Z,3.1
2017-10-31T12:17:40.032Z,3.9
2017-10-31T12:18:40.075Z,4.5
2017-10-31T12:19:40.033Z,5.2
2017-10-31T12:20:40.033Z,5.3
2017-10-31T12:21:40.074Z,5
2017-10-31T12:22:40.017Z,5.2
2017-10-31T12:23:40.037Z,5
2017-10-31T12:24:40.022Z,5.2
2017-10-31T12:25:40.022Z,4.8
2017-10-31T12:26:40.064Z,4.7
2017-10-31T12:27:40.018Z,4.4
2017-10-31T12:28:40.031Z,4.2
2017-10-31T12:29:40.033Z,5.1
2017-10-31T12:30:40.057Z,5.5
2017-10-31T12:31:40.101Z,5.7
2017-10-31T12:32:40.019Z,5.8
2017-10-31T12:33:40.031Z,5.6
2017-10-31T12:34:40.015Z,5.3
2017-10-31T12:35:40.015Z,5.3
2017-10-31T12:36:40.069Z,5.2
2017-10-31T12:37:40.047Z,5.5
2017-10-31T12:38:40.020Z,5.6
2017-10-31T12:39:40.024Z,5.5
2017-10-31T12:40:40.063Z,5
2017-10-31T12:41:40.025Z,4.9
2017-10-31T12:42:40.029Z,4.7
2017-10-31T12:43:40.023Z,5
2017-10-31T12:44:40.030Z,5.1
2017-10-31T12:45:39.998Z,4.6
2017-10-31T12:46:40.018Z,5.3
2017-10-31T12:47:40.045Z,6
2017-10-31T12:48:40.046Z,5.8
2017-10-31T12:49:40.026Z,5.8
2017-10-31T12:50:40.038Z,5.7
2017-10-31T12:51:40.016Z,5.5
2017-10-31T12:52:40.018Z,5.9
2017-10-31T12:53:40.051Z,6.3
2017-10-31T12:54:40.065Z,6.3
2017-10-31T12:55:40.024Z,6.5
2017-10-31T12:56:40.060Z,6.6
2017-10-31T12:57:40.031Z,6.2
2017-10-31T12:58:40.036Z,5.7
2017-10-31T12:59:40.020Z,5.3
2017-10-31T13:00:40.060Z,5.7
2017-10-31T13:01:40.006Z,5.9
2017-10-31T13:02:40.046Z,6.1
2017-10-31T13:03:39.995Z,6.5
2017-10-31T13:04:40.023Z,7.1
2017-10-31T13:05:40.065Z,7.1
2017-10-31T13:06:40.008Z,6.6
2017-10-31T13:07:40.012Z,6.7
2017-10-31T13:08:40.015Z,6.3
2017-10-31T13:09:40.014Z,6
2017-10-31T13:10:40.049Z,5.5
2017-10-31T13:11:40.017Z,5.9
2017-10-31T13:12:40.027Z,5.9
2017-10-31T13:13:40.031Z,5.7
2017-10-31T13:14:40.019Z,5.5
2017-10-31T13:15:40.008Z,5.4
2017-10-31T13:16:40.021Z,5.5
2017-10-31T13:17:40.020Z,5.3
2017-10-31T13:18:40.014Z,4.9
2017-10-31T13:19:40.010Z,4.5
2017-10-31T13:20:40.006Z,4.4
2017-10-31T13:21:40.010Z,4.6
2017-10-31T13:22:40.000Z,4.3
2017-10-31T13:23:40.011Z,3.9
2017-10-31T13:24:40.016Z,3.8
2017-10-31T13:25:40.006Z,4.1
2017-10-31T13:26:40.037Z,4.5
2017-10-31T13:27:40.015Z,4.6
2017-10-31T13:28:40.016Z,5.5
2017-10-31T13:29:39.996Z,5.7
2017-10-31T13:30:40.015Z,5.7
2017-10-31T13:31:40.009Z,5.6
2017-10-31T13:32:40.011Z,5.5
2017-10-31T13:33:40.014Z,5.3
2017-10-31T13:34:40.024Z,5.1
2017-10-31T13:35:39.993Z,5.4
2017-10-31T13:36:39.993Z,6.1
2017-10-31T13:37:40.002Z,6.1
2017-10-31T13:38:40.008Z,6.2
2017-10-31T13:39:40.076Z,6.1
2017-10-31T13:40:40.004Z,5.7
2017-10-31T13:41:40.001Z,5.5
2017-10-31T13:42:40.026Z,6
2017-10-31T13:43:39.986Z,6.2
2017-10-31T13:44:39.981Z,6.2
2017-10-31T13:45:40.036Z,5.8
2017-10-31T13:46:40.006Z,5.6
2017-10-31T13:47:40.073Z,5.2
2017-10-31T13:48:40.003Z,5
2017-10-31T13:49:40.010Z,5.1
2017-10-31T13:50:40.004Z,5
2017-10-31T13:51:40.038Z,5
2017-10-31T13:52:40.031Z,5.3
2017-10-31T13:53:39.990Z,5.4
2017-10-31T13:54:40.010Z,5.2
2017-10-31T13:55:40.014Z,5
2017-10-31T13:56:39.991Z,5.3